Time;durP1;ratioP1;P1;durP2;ratioP2;P2;SDS_P1;SDS_P2;PMS_P1;PMS_P2;Temp;Humidity;BMP_temperature;BMP_pressure;BME280_temperature;BME280_humidity;BME280_pressure;Samples;Min_cycle;Max_cycle;Signal;HPM_P1;HPM_P2
2021/09/26 00:00:22;;;;;;;13.30;4.07;;;;;;;16.12;100.00;94010.41;5133764;28;20203;-78
2021/09/26 00:02:48;;;;;;;16.77;4.60;;;;;;;16.06;100.00;94009.47;5133684;28;20257;-78
2021/09/26 00:05:15;;;;;;;9.65;3.67;;;;;;;15.89;100.00;94001.44;5133511;28;20220;-79
2021/09/26 00:07:43;;;;;;;11.77;4.07;;;;;;;15.89;100.00;93996.16;5133419;28;20200;-80
2021/09/26 00:10:12;;;;;;;12.43;4.28;;;;;;;15.79;100.00;93990.66;5133490;28;20193;-78
2021/09/26 00:12:40;;;;;;;9.52;4.28;;;;;;;15.72;100.00;93993.38;5133478;28;20600;-78
2021/09/26 00:15:11;;;;;;;10.68;4.00;;;;;;;15.68;100.00;93994.84;5133394;28;20647;-78
2021/09/26 00:17:38;;;;;;;11.95;4.30;;;;;;;15.64;100.00;94006.06;5133561;28;20199;-78
2021/09/26 00:20:06;;;;;;;9.48;4.20;;;;;;;15.63;100.00;93999.97;5133328;28;20224;-78
2021/09/26 00:22:33;;;;;;;13.23;4.63;;;;;;;15.56;100.00;94011.66;5133477;27;20201;-78
2021/09/26 00:25:01;;;;;;;15.13;4.45;;;;;;;15.57;100.00;93997.44;5137458;27;20204;-79
2021/09/26 00:27:28;;;;;;;9.68;4.55;;;;;;;15.42;100.00;94001.31;5137027;27;20251;-79
2021/09/26 00:29:54;;;;;;;15.77;4.38;;;;;;;15.33;100.00;94002.66;5097149;27;20256;-78
2021/09/26 00:32:20;;;;;;;7.40;4.65;;;;;;;15.27;100.00;93998.28;5096162;28;20209;-78
2021/09/26 00:34:47;;;;;;;13.70;4.47;;;;;;;15.46;100.00;94002.47;5096195;28;20237;-78
2021/09/26 00:37:14;;;;;;;10.38;4.60;;;;;;;15.39;100.00;93996.50;5105144;28;20197;-78
2021/09/26 00:39:40;;;;;;;8.65;4.55;;;;;;;15.31;100.00;93995.00;5116258;28;20252;-78
2021/09/26 00:42:08;;;;;;;11.45;5.25;;;;;;;15.12;100.00;93994.25;5116556;28;20206;-78
2021/09/26 00:44:35;;;;;;;11.30;4.97;;;;;;;15.26;100.00;93986.19;5116265;28;20204;-78
2021/09/26 00:47:01;;;;;;;11.60;5.32;;;;;;;15.24;100.00;93988.19;5116332;28;20197;-78
2021/09/26 00:49:28;;;;;;;13.60;4.88;;;;;;;15.16;100.00;93982.25;5116117;28;20197;-78
2021/09/26 00:51:54;;;;;;;10.38;5.13;;;;;;;15.12;100.00;93988.16;5116448;28;20202;-78
2021/09/26 00:54:21;;;;;;;13.02;4.85;;;;;;;15.06;100.00;93989.88;5116090;28;20537;-78
2021/09/26 00:56:48;;;;;;;12.45;5.05;;;;;;;15.06;100.00;93989.06;5116237;28;20201;-78
2021/09/26 00:59:16;;;;;;;12.57;5.28;;;;;;;15.09;100.00;93984.16;5116142;28;20323;-78
2021/09/26 01:01:42;;;;;;;11.75;5.70;;;;;;;15.05;100.00;93980.38;5115980;28;20197;-78
2021/09/26 01:04:09;;;;;;;10.77;5.45;;;;;;;15.28;100.00;93981.47;5115938;28;20193;-77
2021/09/26 01:06:44;;;;;;;11.10;5.10;;;;;;;15.36;100.00;93978.53;5115956;28;20667;-79
2021/09/26 01:09:21;;;;;;;10.65;5.45;;;;;;;15.24;100.00;93985.56;5115884;28;20201;-77
2021/09/26 01:11:54;;;;;;;10.35;5.20;;;;;;;15.18;100.00;93974.91;5115936;28;20211;-78
2021/09/26 01:14:26;;;;;;;16.55;5.80;;;;;;;15.13;100.00;93972.16;5115726;28;20205;-78
2021/09/26 01:17:03;;;;;;;8.82;5.53;;;;;;;15.21;100.00;93980.78;5115974;28;20517;-78
2021/09/26 01:19:41;;;;;;;15.38;5.25;;;;;;;15.21;100.00;93978.94;5115784;28;20224;-78
2021/09/26 01:22:12;;;;;;;8.38;4.90;;;;;;;15.12;100.00;93975.00;5115649;28;20648;-78
2021/09/26 01:25:03;;;;;;;11.80;5.80;;;;;;;15.12;100.00;93980.28;5115623;28;20677;-78
2021/09/26 01:27:46;;;;;;;11.65;5.32;;;;;;;15.14;100.00;93979.03;5115083;28;20248;-78
2021/09/26 01:30:24;;;;;;;8.50;4.85;;;;;;;15.07;100.00;93980.13;5132640;27;20189;-78
2021/09/26 01:32:59;;;;;;;23.42;6.25;;;;;;;15.05;100.00;93975.09;5136096;27;20200;-78
2021/09/26 01:35:27;;;;;;;11.55;5.72;;;;;;;15.07;100.00;93975.72;5135459;27;20203;-78
2021/09/26 01:38:02;;;;;;;19.52;6.20;;;;;;;15.34;100.00;93977.97;5135809;27;20221;-79
2021/09/26 01:40:35;;;;;;;11.25;6.38;;;;;;;15.47;100.00;93972.50;5135962;27;20227;-78
2021/09/26 01:43:07;;;;;;;10.38;5.00;;;;;;;15.56;100.00;93970.34;5135697;27;20200;-78
2021/09/26 01:45:41;;;;;;;13.25;5.25;;;;;;;15.43;100.00;93979.22;5135705;27;20269;-79
2021/09/26 01:48:12;;;;;;;12.95;5.38;;;;;;;15.47;100.00;93983.03;5135965;27;20196;-77
2021/09/26 01:50:40;;;;;;;13.38;5.47;;;;;;;15.46;100.00;93976.16;5135810;27;20223;-78
2021/09/26 01:53:10;;;;;;;14.05;5.18;;;;;;;15.50;100.00;93982.59;5135706;27;20651;-78
2021/09/26 01:55:37;;;;;;;12.02;4.97;;;;;;;15.47;100.00;93985.66;5135538;27;20193;-79
2021/09/26 01:58:04;;;;;;;13.40;5.22;;;;;;;15.39;100.00;93987.78;5135482;27;20643;-78
2021/09/26 02:00:31;;;;;;;11.18;5.03;;;;;;;15.35;100.00;93984.81;5135199;27;20228;-78
2021/09/26 02:02:59;;;;;;;19.20;5.65;;;;;;;15.27;100.00;93985.13;5135602;27;20193;-78
2021/09/26 02:05:27;;;;;;;9.88;4.90;;;;;;;15.07;100.00;93985.41;5135440;27;20554;-79
2021/09/26 02:07:55;;;;;;;11.20;5.78;;;;;;;14.96;100.00;93986.97;5135253;27;20662;-78
2021/09/26 02:10:23;;;;;;;13.00;6.25;;;;;;;14.93;100.00;93980.31;5135298;27;20201;-78
2021/09/26 02:12:50;;;;;;;12.02;5.63;;;;;;;14.82;100.00;93982.91;5135106;27;20214;-78
2021/09/26 02:15:19;;;;;;;12.73;5.93;;;;;;;14.77;100.00;93978.28;5135424;27;20254;-78
2021/09/26 02:17:48;;;;;;;14.77;5.88;;;;;;;14.76;100.00;93974.06;5135209;27;20192;-78
2021/09/26 02:20:18;;;;;;;13.60;6.80;;;;;;;14.75;100.00;93968.00;5135062;27;20228;-79
2021/09/26 02:22:45;;;;;;;11.30;6.18;;;;;;;14.75;100.00;93960.13;5135178;27;20203;-78
2021/09/26 02:25:14;;;;;;;19.00;6.50;;;;;;;14.78;100.00;93953.63;5134961;27;20223;-78
2021/09/26 02:27:42;;;;;;;13.20;7.05;;;;;;;14.77;100.00;93952.84;5134809;27;20201;-78
2021/09/26 02:30:09;;;;;;;12.15;6.30;;;;;;;14.63;100.00;93948.75;5134775;27;20203;-77
2021/09/26 02:32:36;;;;;;;14.70;7.35;;;;;;;14.87;100.00;93952.31;5134926;27;20219;-78
2021/09/26 02:35:04;;;;;;;14.95;7.55;;;;;;;14.85;100.00;93954.34;5134218;27;20437;-78
2021/09/26 02:37:33;;;;;;;16.20;6.78;;;;;;;14.88;100.00;93956.53;5134694;27;20200;-78
2021/09/26 02:40:01;;;;;;;14.30;6.32;;;;;;;14.74;100.00;93952.47;5134552;27;20236;-78
2021/09/26 02:42:37;;;;;;;11.18;6.40;;;;;;;14.73;100.00;93951.66;5134584;27;20197;-78
2021/09/26 02:45:07;;;;;;;13.85;6.90;;;;;;;14.74;100.00;93948.00;5134105;27;20200;-78
2021/09/26 02:47:38;;;;;;;17.67;6.78;;;;;;;14.68;100.00;93955.97;5134249;27;20197;-77
2021/09/26 02:50:05;;;;;;;13.90;7.03;;;;;;;14.72;100.00;93942.19;5134496;27;20209;-77
2021/09/26 02:52:34;;;;;;;15.93;6.57;;;;;;;14.76;100.00;93940.69;5134350;27;20201;-78
2021/09/26 02:55:01;;;;;;;17.80;7.40;;;;;;;14.68;100.00;93941.00;5134446;27;20204;-78
2021/09/26 02:57:28;;;;;;;16.73;7.18;;;;;;;14.61;100.00;93940.31;5134290;27;20570;-78
2021/09/26 02:59:55;;;;;;;13.65;6.60;;;;;;;14.62;100.00;93939.25;5134250;27;20225;-78
2021/09/26 03:02:28;;;;;;;14.23;7.47;;;;;;;14.55;100.00;93933.25;5134258;27;20651;-77
2021/09/26 03:04:55;;;;;;;18.35;6.45;;;;;;;14.55;100.00;93934.06;5134210;27;20235;-78
2021/09/26 03:07:21;;;;;;;14.15;7.03;;;;;;;14.56;100.00;93929.63;5134439;27;20204;-78
2021/09/26 03:09:49;;;;;;;13.90;6.80;;;;;;;14.44;100.00;93932.19;5134278;27;20205;-78
2021/09/26 03:12:19;;;;;;;13.70;6.47;;;;;;;14.27;100.00;93928.53;5134351;27;20250;-78
2021/09/26 03:14:45;;;;;;;18.92;7.95;;;;;;;14.25;100.00;93928.75;5134022;27;20673;-78
2021/09/26 03:17:12;;;;;;;17.50;7.75;;;;;;;14.29;100.00;93927.31;5134138;27;20237;-79
2021/09/26 03:19:39;;;;;;;11.30;7.10;;;;;;;14.16;100.00;93925.63;5133793;27;20295;-78
2021/09/26 03:22:07;;;;;;;18.92;9.18;;;;;;;14.19;100.00;93914.69;5133821;27;20466;-77
2021/09/26 03:24:33;;;;;;;20.73;7.68;;;;;;;14.11;100.00;93920.22;5134006;27;20208;-77
2021/09/26 03:27:03;;;;;;;15.65;7.40;;;;;;;14.06;100.00;93920.88;5132475;27;20231;-77
2021/09/26 03:29:32;;;;;;;16.13;7.25;;;;;;;14.03;100.00;93917.88;5114843;27;20204;-77
2021/09/26 03:31:59;;;;;;;13.52;7.68;;;;;;;13.80;100.00;93916.69;5113361;28;20213;-77
2021/09/26 03:34:25;;;;;;;15.95;7.80;;;;;;;13.80;100.00;93915.88;5113492;28;20209;-76
2021/09/26 03:36:52;;;;;;;18.88;7.82;;;;;;;13.82;100.00;93914.66;5113514;28;20664;-77
2021/09/26 03:39:18;;;;;;;25.02;8.48;;;;;;;13.76;100.00;93912.09;5113104;28;20197;-77
2021/09/26 03:41:45;;;;;;;17.05;8.45;;;;;;;13.72;100.00;93910.91;5113400;28;20201;-77
2021/09/26 03:44:12;;;;;;;21.65;8.43;;;;;;;13.77;100.00;93911.91;5113235;28;20199;-77
2021/09/26 03:46:39;;;;;;;18.52;8.27;;;;;;;13.85;100.00;93908.97;5113114;28;20671;-77
2021/09/26 03:49:06;;;;;;;20.92;9.93;;;;;;;13.91;100.00;93912.56;5113155;28;20205;-78
2021/09/26 03:51:32;;;;;;;21.00;10.20;;;;;;;14.05;100.00;93915.84;5113140;28;20208;-77
2021/09/26 03:54:00;;;;;;;18.20;9.13;;;;;;;13.93;100.00;93905.25;5113230;28;20254;-78
2021/09/26 03:56:26;;;;;;;22.58;8.35;;;;;;;13.81;100.00;93912.25;5113126;28;20204;-78
2021/09/26 03:58:53;;;;;;;17.80;8.68;;;;;;;13.85;100.00;93916.84;5117298;28;20197;-78
2021/09/26 04:01:21;;;;;;;16.33;8.07;;;;;;;13.71;100.00;93917.19;5117086;28;20285;-78
2021/09/26 04:03:47;;;;;;;17.10;8.60;;;;;;;13.57;100.00;93917.28;5117309;28;20197;-78
2021/09/26 04:06:13;;;;;;;15.07;7.93;;;;;;;13.41;100.00;93913.41;5117254;28;20201;-77
2021/09/26 04:08:41;;;;;;;21.83;8.23;;;;;;;13.35;100.00;93913.47;5117202;28;20197;-78
2021/09/26 04:11:07;;;;;;;22.15;8.02;;;;;;;13.31;100.00;93913.84;5117115;28;20613;-77
2021/09/26 04:13:34;;;;;;;16.17;8.65;;;;;;;13.21;100.00;93913.53;5116924;28;20194;-77
2021/09/26 04:16:00;;;;;;;19.90;10.48;;;;;;;13.32;100.00;93920.75;5117175;28;20201;-78
2021/09/26 04:18:28;;;;;;;16.23;9.38;;;;;;;13.18;100.00;93918.41;5117108;27;20197;-78
2021/09/26 04:20:55;;;;;;;18.25;8.52;;;;;;;13.04;100.00;93917.66;5116770;28;20229;-77
2021/09/26 04:23:22;;;;;;;21.70;10.23;;;;;;;13.10;100.00;93911.59;5116856;28;20198;-77
2021/09/26 04:25:48;;;;;;;25.02;9.43;;;;;;;13.09;100.00;93915.22;5116514;28;20229;-77
2021/09/26 04:28:14;;;;;;;23.95;10.10;;;;;;;13.11;100.00;93913.22;5116631;28;20206;-78
2021/09/26 04:30:41;;;;;;;23.52;10.57;;;;;;;13.14;100.00;93904.91;5116951;28;20206;-77
2021/09/26 04:33:07;;;;;;;25.15;11.52;;;;;;;13.17;100.00;93901.06;5116741;28;20193;-77
2021/09/26 04:35:35;;;;;;;30.40;11.52;;;;;;;13.21;100.00;93902.25;5116747;28;20197;-77
2021/09/26 04:38:03;;;;;;;25.73;10.75;;;;;;;13.10;100.00;93911.59;5116611;28;20202;-78
2021/09/26 04:40:29;;;;;;;23.80;10.57;;;;;;;12.98;100.00;93894.94;5116331;28;20237;-77
2021/09/26 04:42:56;;;;;;;24.33;10.13;;;;;;;12.94;100.00;93898.00;5116339;28;20201;-77
2021/09/26 04:45:22;;;;;;;26.95;10.32;;;;;;;13.02;100.00;93896.13;5116524;28;20201;-77
2021/09/26 04:47:49;;;;;;;26.38;11.60;;;;;;;13.00;100.00;93895.53;5116260;28;20211;-77
2021/09/26 04:50:15;;;;;;;20.85;11.15;;;;;;;13.00;100.00;93887.66;5116170;27;20198;-77
2021/09/26 04:52:43;;;;;;;29.95;11.10;;;;;;;13.02;100.00;93898.75;5116383;28;20201;-77
2021/09/26 04:55:10;;;;;;;23.23;10.52;;;;;;;12.89;100.00;93902.25;5116205;28;20201;-77
2021/09/26 04:57:37;;;;;;;25.30;10.02;;;;;;;12.77;100.00;93904.72;5115996;28;20205;-77
2021/09/26 05:00:05;;;;;;;25.25;10.15;;;;;;;12.81;100.00;93902.53;5116104;28;20247;-78
2021/09/26 05:02:32;;;;;;;19.90;9.85;;;;;;;12.75;100.00;93915.41;5116172;28;20197;-77
2021/09/26 05:04:58;;;;;;;30.25;11.00;;;;;;;12.76;100.00;93906.56;5116091;28;20197;-77
2021/09/26 05:07:24;;;;;;;27.42;11.43;;;;;;;12.69;100.00;93904.97;5115915;28;20209;-77
2021/09/26 05:09:52;;;;;;;24.98;12.07;;;;;;;12.86;100.00;93895.63;5115005;28;20205;-77
2021/09/26 05:12:19;;;;;;;31.67;12.93;;;;;;;12.90;100.00;93891.56;5115823;28;20761;-78
2021/09/26 05:14:45;;;;;;;33.42;13.82;;;;;;;12.94;100.00;93892.75;5115865;28;20201;-77
2021/09/26 05:17:12;;;;;;;32.30;12.20;;;;;;;12.90;100.00;93886.31;5115918;28;20198;-77
2021/09/26 05:19:38;;;;;;;27.00;11.65;;;;;;;12.86;100.00;93885.13;5115711;28;20219;-77
2021/09/26 05:22:05;;;;;;;30.23;12.98;;;;;;;12.80;100.00;93891.22;5115807;28;20189;-77
2021/09/26 05:24:31;;;;;;;32.28;11.85;;;;;;;12.74;100.00;93897.31;5131745;27;20204;-78
2021/09/26 05:26:59;;;;;;;28.33;11.60;;;;;;;12.71;100.00;93887.25;5135984;27;20227;-77
2021/09/26 05:29:25;;;;;;;29.33;12.02;;;;;;;12.69;100.00;93886.63;5136206;27;20204;-76
2021/09/26 05:31:52;;;;;;;31.92;12.50;;;;;;;12.71;100.00;93900.34;5136296;27;20254;-77
2021/09/26 05:34:18;;;;;;;30.20;11.60;;;;;;;12.72;100.00;93909.81;5136008;27;20201;-77
2021/09/26 05:36:45;;;;;;;28.02;12.60;;;;;;;12.73;100.00;93916.66;5135987;27;20659;-77
2021/09/26 05:39:11;;;;;;;33.20;12.18;;;;;;;12.73;100.00;93903.56;5135688;27;20235;-77
2021/09/26 05:41:38;;;;;;;35.40;12.98;;;;;;;12.81;100.00;93892.84;5136040;27;20228;-76
2021/09/26 05:44:06;;;;;;;31.38;13.80;;;;;;;12.94;100.00;93892.75;5135953;27;20193;-77
2021/09/26 05:46:32;;;;;;;31.65;12.73;;;;;;;12.96;100.00;93884.69;5135798;27;20654;-77
2021/09/26 05:48:59;;;;;;;32.00;13.10;;;;;;;13.08;100.00;93882.16;5135683;27;20674;-77
2021/09/26 05:51:25;;;;;;;34.92;14.20;;;;;;;13.22;100.00;93880.25;5135777;27;20197;-77
2021/09/26 05:53:51;;;;;;;33.10;14.40;;;;;;;13.38;100.00;93871.06;5135851;27;20208;-76
2021/09/26 05:56:18;;;;;;;34.28;14.43;;;;;;;13.56;100.00;93884.22;5135511;27;20193;-77
2021/09/26 05:58:44;;;;;;;30.45;13.55;;;;;;;13.57;100.00;93901.56;5135449;27;20200;-77
2021/09/26 06:01:13;;;;;;;27.27;11.80;;;;;;;13.48;100.00;93903.66;5135595;27;20235;-77
2021/09/26 06:03:41;;;;;;;25.90;11.18;;;;;;;13.38;100.00;93905.16;5135459;27;20201;-77
2021/09/26 06:06:08;;;;;;;27.90;11.00;;;;;;;13.39;100.00;93909.38;5135279;27;20287;-77
2021/09/26 06:08:34;;;;;;;24.58;11.55;;;;;;;13.41;100.00;93918.66;5135534;27;20215;-77
2021/09/26 06:11:01;;;;;;;23.42;11.38;;;;;;;13.48;100.00;93915.97;5135217;27;20207;-77
2021/09/26 06:13:28;;;;;;;19.25;10.98;;;;;;;13.61;100.00;93913.25;5135276;27;20197;-77
2021/09/26 06:15:54;;;;;;;23.10;11.02;;;;;;;13.67;100.00;93911.56;5135206;27;20205;-77
2021/09/26 06:18:22;;;;;;;25.27;11.32;;;;;;;13.72;100.00;93908.28;5135093;27;20647;-78
2021/09/26 06:20:49;;;;;;;20.77;11.05;;;;;;;13.77;100.00;93911.06;5133770;27;20228;-77
2021/09/26 06:23:16;;;;;;;21.30;10.88;;;;;;;13.79;100.00;93909.84;5135221;27;20223;-77
2021/09/26 06:25:42;;;;;;;20.10;10.82;;;;;;;13.79;100.00;93906.41;5134838;27;20233;-78
2021/09/26 06:28:09;;;;;;;23.58;10.65;;;;;;;13.84;100.00;93903.97;5135078;27;20211;-77
2021/09/26 06:30:36;;;;;;;18.83;10.23;;;;;;;13.89;100.00;93904.09;5134761;27;20667;-77
2021/09/26 06:33:03;;;;;;;20.75;10.85;;;;;;;14.01;100.00;93912.84;5134770;27;20207;-78
2021/09/26 06:35:32;;;;;;;28.65;10.65;;;;;;;14.05;100.00;93907.97;5134641;27;20662;-77
2021/09/26 06:37:58;;;;;;;20.92;9.80;;;;;;;14.17;100.00;93905.41;5134874;27;20215;-77
2021/09/26 06:40:25;;;;;;;15.45;10.15;;;;;;;14.28;100.00;93894.19;5134730;27;20284;-78
2021/09/26 06:42:52;;;;;;;23.67;9.32;;;;;;;14.46;100.00;93903.06;5134845;27;20242;-78
2021/09/26 06:45:18;;;;;;;18.35;9.35;;;;;;;14.62;100.00;93912.97;5134662;27;20204;-77
2021/09/26 06:47:45;;;;;;;26.15;10.75;;;;;;;14.86;100.00;93929.66;5134527;27;20227;-77
2021/09/26 06:50:12;;;;;;;14.65;8.82;;;;;;;15.29;100.00;93933.13;5134676;27;20196;-78
2021/09/26 06:52:39;;;;;;;14.02;9.13;;;;;;;15.49;100.00;93948.59;5134592;27;20200;-77
2021/09/26 06:55:07;;;;;;;18.20;10.30;;;;;;;15.67;100.00;93955.59;5134535;27;20199;-78
2021/09/26 06:57:34;;;;;;;24.02;11.38;;;;;;;16.24;100.00;93971.66;5134457;27;20200;-77
2021/09/26 07:00:00;;;;;;;22.30;11.20;;;;;;;16.75;100.00;93963.19;5134209;27;20646;-77
2021/09/26 07:02:27;;;;;;;13.40;7.38;;;;;;;16.78;100.00;93960.09;5134066;27;20583;-77
2021/09/26 07:04:54;;;;;;;14.55;6.97;;;;;;;17.07;100.00;93960.13;5134367;27;20204;-76
2021/09/26 07:07:22;;;;;;;12.77;6.10;;;;;;;17.39;100.00;93961.25;5134212;27;20196;-77
2021/09/26 07:09:50;;;;;;;12.32;6.03;;;;;;;17.71;100.00;93965.19;5134254;27;20208;-77
2021/09/26 07:12:17;;;;;;;9.45;5.15;;;;;;;17.84;100.00;93966.72;5134267;27;20201;-77
2021/09/26 07:14:43;;;;;;;13.40;5.07;;;;;;;17.78;100.00;93967.69;5130193;27;20196;-77
2021/09/26 07:17:10;;;;;;;14.57;5.82;;;;;;;17.97;100.00;93971.72;5134077;27;20204;-77
2021/09/26 07:19:37;;;;;;;14.30;5.07;;;;;;;17.92;100.00;93980.34;5134196;27;20555;-77
2021/09/26 07:22:04;;;;;;;12.25;5.38;;;;;;;18.14;100.00;93992.84;5134093;27;20227;-77
2021/09/26 07:24:30;;;;;;;11.95;5.35;;;;;;;18.20;100.00;94002.44;5133962;27;20193;-77
2021/09/26 07:26:58;;;;;;;10.50;5.30;;;;;;;18.04;100.00;94011.19;5133838;27;20228;-77
2021/09/26 07:29:25;;;;;;;15.98;5.28;;;;;;;17.63;100.00;94023.69;5133754;27;20646;-76
2021/09/26 07:31:51;;;;;;;11.77;4.72;;;;;;;17.68;100.00;94035.13;5133540;27;20193;-76
2021/09/26 07:34:17;;;;;;;14.88;5.85;;;;;;;17.43;100.00;94047.88;5133915;27;20193;-77
2021/09/26 07:36:44;;;;;;;9.82;5.05;;;;;;;17.33;100.00;94057.19;5133916;27;20200;-78
2021/09/26 07:39:10;;;;;;;9.57;5.70;;;;;;;17.16;100.00;94069.53;5133746;28;20232;-77
2021/09/26 07:41:37;;;;;;;11.23;6.05;;;;;;;17.14;100.00;94074.25;5133816;28;20235;-78
2021/09/26 07:44:05;;;;;;;9.07;5.68;;;;;;;17.04;100.00;94080.13;5133681;28;20627;-77
2021/09/26 07:46:31;;;;;;;14.35;6.57;;;;;;;16.89;100.00;94085.88;5133926;28;20199;-78
2021/09/26 07:48:58;;;;;;;12.32;6.22;;;;;;;16.82;100.00;94093.91;5133709;28;20543;-78
2021/09/26 07:51:24;;;;;;;18.30;6.40;;;;;;;16.65;100.00;94108.78;5132546;28;20204;-77
2021/09/26 07:53:51;;;;;;;13.95;5.68;;;;;;;16.37;100.00;94098.94;5133209;28;20221;-78
2021/09/26 07:56:18;;;;;;;20.60;7.30;;;;;;;16.16;100.00;94109.00;5133718;28;20192;-78
2021/09/26 07:58:44;;;;;;;13.73;7.45;;;;;;;16.07;100.00;94129.59;5133649;28;20283;-78
2021/09/26 08:01:12;;;;;;;18.10;7.93;;;;;;;16.04;100.00;94123.97;5133523;28;20224;-78
2021/09/26 08:03:40;;;;;;;18.05;7.93;;;;;;;15.98;100.00;94125.66;5133487;28;20201;-78
2021/09/26 08:06:07;;;;;;;14.88;9.02;;;;;;;15.96;100.00;94124.31;5132979;28;20224;-78
2021/09/26 08:08:35;;;;;;;18.50;9.43;;;;;;;15.90;100.00;94128.63;5132904;28;20241;-78
2021/09/26 08:11:02;;;;;;;18.63;9.02;;;;;;;15.88;100.00;94136.75;5133174;28;20205;-79
2021/09/26 08:13:29;;;;;;;16.13;9.27;;;;;;;15.86;100.00;94138.00;5133186;28;20659;-78
2021/09/26 08:15:55;;;;;;;19.05;9.63;;;;;;;15.81;100.00;94135.25;5133196;28;20196;-78
2021/09/26 08:18:23;;;;;;;21.63;10.88;;;;;;;15.75;100.00;94142.16;5133233;28;20196;-78
2021/09/26 08:20:49;;;;;;;27.35;11.93;;;;;;;15.68;100.00;94141.44;5133209;28;20193;-77
2021/09/26 08:23:16;;;;;;;25.05;11.27;;;;;;;15.60;100.00;94139.13;5133574;28;20246;-78
2021/09/26 08:25:42;;;;;;;19.40;10.27;;;;;;;15.52;100.00;94142.84;5133205;28;20233;-78
2021/09/26 08:28:09;;;;;;;18.35;11.00;;;;;;;15.44;100.00;94141.34;5133231;28;20556;-78
2021/09/26 08:30:35;;;;;;;18.65;10.55;;;;;;;15.38;100.00;94147.50;5133513;28;20197;-78
2021/09/26 08:33:02;;;;;;;19.10;9.65;;;;;;;15.33;100.00;94152.63;5133484;28;20203;-78
2021/09/26 08:35:30;;;;;;;19.08;9.93;;;;;;;15.26;100.00;94144.00;5133356;28;20193;-77
2021/09/26 08:37:57;;;;;;;20.30;10.35;;;;;;;15.24;100.00;94143.41;5133342;28;20405;-78
2021/09/26 08:40:24;;;;;;;20.92;11.57;;;;;;;15.22;100.00;94148.06;5133231;27;20228;-77
2021/09/26 08:42:51;;;;;;;22.25;12.05;;;;;;;15.22;100.00;94153.34;5133450;27;20224;-78
2021/09/26 08:45:20;;;;;;;20.30;11.57;;;;;;;15.19;100.00;94154.59;5135972;27;20208;-77
2021/09/26 08:47:47;;;;;;;23.42;12.20;;;;;;;15.21;100.00;94152.53;5137095;27;20200;-77
2021/09/26 08:50:16;;;;;;;23.30;13.18;;;;;;;15.36;100.00;94166.13;5136870;27;20201;-77
2021/09/26 08:52:44;;;;;;;22.13;13.45;;;;;;;15.50;100.00;94173.88;5135460;27;20490;-78
2021/09/26 08:55:12;;;;;;;22.73;11.25;;;;;;;15.43;100.00;94181.03;5136736;27;20564;-77
2021/09/26 08:57:40;;;;;;;20.73;10.80;;;;;;;15.43;100.00;94178.41;5136889;27;20577;-77
2021/09/26 09:00:09;;;;;;;19.10;10.68;;;;;;;15.46;100.00;94170.88;5136781;27;20200;-77
2021/09/26 09:02:36;;;;;;;21.90;11.07;;;;;;;15.44;100.00;94166.88;5136584;27;20231;-76
2021/09/26 09:05:04;;;;;;;17.73;9.70;;;;;;;15.42;100.00;94158.38;5136636;27;20215;-77
2021/09/26 09:07:31;;;;;;;19.10;10.82;;;;;;;15.43;100.00;94150.25;5136543;27;20196;-77
2021/09/26 09:10:00;;;;;;;15.95;10.02;;;;;;;15.43;100.00;94152.88;5136721;27;20249;-77
2021/09/26 09:12:31;;;;;;;21.75;10.70;;;;;;;15.41;100.00;94144.41;5136604;27;20201;-77
2021/09/26 09:15:00;;;;;;;19.05;10.52;;;;;;;15.31;100.00;94150.19;5136584;27;20256;-77
2021/09/26 09:17:29;;;;;;;19.27;11.07;;;;;;;15.38;100.00;94152.75;5133026;27;20204;-77
2021/09/26 09:20:12;;;;;;;14.68;10.20;;;;;;;15.42;100.00;94153.94;5115670;28;20206;-77
2021/09/26 09:22:39;;;;;;;19.27;10.38;;;;;;;15.44;100.00;94140.56;5115882;28;20247;-77
2021/09/26 09:25:07;;;;;;;17.63;11.15;;;;;;;15.39;100.00;94135.94;5115369;28;20197;-76
2021/09/26 09:27:34;;;;;;;20.75;11.40;;;;;;;15.40;100.00;94140.16;5115433;28;20233;-77
2021/09/26 09:30:02;;;;;;;19.70;11.27;;;;;;;15.49;100.00;94128.34;5114944;28;20201;-75
2021/09/26 09:32:29;;;;;;;21.20;11.43;;;;;;;15.43;100.00;94123.16;5115552;28;20205;-76
2021/09/26 09:34:55;;;;;;;18.65;11.65;;;;;;;15.37;100.00;94130.13;5115858;28;20197;-76
2021/09/26 09:37:24;;;;;;;24.00;12.27;;;;;;;15.55;100.00;94137.16;5114873;28;20209;-76
2021/09/26 09:40:15;;;;;;;20.17;11.45;;;;;;;15.69;100.00;94122.81;5114587;28;20227;-76
2021/09/26 09:42:44;;;;;;;19.45;11.02;;;;;;;15.99;100.00;94121.22;5103232;28;20245;-76
2021/09/26 09:45:22;;;;;;;22.33;11.60;;;;;;;16.21;100.00;94126.75;5093887;28;20206;-76
2021/09/26 09:48:00;;;;;;;17.00;10.07;;;;;;;16.31;100.00;94120.94;5093639;28;20201;-76
2021/09/26 09:50:38;;;;;;;13.25;8.93;;;;;;;16.36;100.00;94137.66;5112459;28;20537;-76
2021/09/26 09:53:06;;;;;;;12.52;8.10;;;;;;;16.25;100.00;94139.25;5115094;28;20310;-76
2021/09/26 09:55:35;;;;;;;15.50;9.30;;;;;;;16.25;100.00;94139.25;5114709;28;20729;-75
2021/09/26 09:58:13;;;;;;;9.52;6.93;;;;;;;16.24;100.00;94145.56;5115057;28;20201;-75
2021/09/26 10:00:48;;;;;;;10.82;6.55;;;;;;;16.13;100.00;94143.69;5115078;28;20197;-75
2021/09/26 10:03:33;;;;;;;9.70;6.25;;;;;;;15.94;100.00;94144.78;5114527;27;20319;-76
2021/09/26 10:06:00;;;;;;;9.75;6.85;;;;;;;15.89;100.00;94143.63;5113986;28;20279;-76
2021/09/26 10:08:33;;;;;;;11.70;7.78;;;;;;;15.72;100.00;94140.78;5113490;28;20198;-76
2021/09/26 10:11:07;;;;;;;12.15;7.93;;;;;;;15.50;100.00;94127.31;5114626;28;20225;-76
2021/09/26 10:13:36;;;;;;;14.18;7.85;;;;;;;15.53;100.00;94124.22;5114745;28;20205;-76
2021/09/26 10:16:04;;;;;;;14.48;7.72;;;;;;;15.48;100.00;94118.03;5114641;28;20556;-76
2021/09/26 10:18:30;;;;;;;13.88;7.80;;;;;;;15.46;100.00;94107.72;5113953;28;20242;-77
2021/09/26 10:20:57;;;;;;;12.60;7.80;;;;;;;15.58;100.00;94105.13;5114148;28;20209;-76
2021/09/26 10:23:23;;;;;;;12.48;7.18;;;;;;;15.69;100.00;94100.94;5114332;28;20591;-75
2021/09/26 10:25:50;;;;;;;9.75;6.47;;;;;;;15.91;100.00;94088.09;5113090;28;20442;-75
2021/09/26 10:28:21;;;;;;;9.48;5.80;;;;;;;16.11;100.00;94085.16;5114173;28;20209;-76
2021/09/26 10:30:49;;;;;;;7.45;5.55;;;;;;;16.24;100.00;94090.22;5114288;28;20205;-76
2021/09/26 10:33:15;;;;;;;6.75;5.28;;;;;;;16.18;100.00;94069.25;5114484;28;20254;-76
2021/09/26 10:35:43;;;;;;;6.93;4.88;;;;;;;16.28;100.00;94072.91;5114314;28;20205;-77
2021/09/26 10:38:11;;;;;;;9.38;5.55;;;;;;;16.31;100.00;94060.34;5114291;28;20197;-76
2021/09/26 10:40:37;;;;;;;9.55;5.78;;;;;;;16.41;100.00;94079.81;5114169;28;20205;-76
2021/09/26 10:43:18;;;;;;;8.07;5.93;;;;;;;16.50;100.00;94079.47;5114004;28;20224;-77
2021/09/26 10:45:45;;;;;;;9.40;6.35;;;;;;;16.67;100.00;94079.56;5114179;28;20204;-76
2021/09/26 10:48:11;;;;;;;11.50;6.53;;;;;;;16.94;100.00;94075.44;5113898;28;20603;-76
2021/09/26 10:50:39;;;;;;;12.07;6.30;;;;;;;16.96;100.00;94068.09;5114081;28;20197;-78
2021/09/26 10:53:11;;;;;;;7.78;5.85;;;;;;;17.25;100.00;94068.13;5113853;28;20667;-76
2021/09/26 10:55:38;;;;;;;7.95;5.63;;;;;;;17.37;100.00;94070.75;5113852;28;20205;-76
2021/09/26 10:58:20;;;;;;;9.63;5.93;;;;;;;17.67;100.00;94067.88;5113759;28;20250;-76
2021/09/26 11:00:56;;;;;;;8.73;6.82;;;;;;;17.61;100.00;94062.72;5113060;28;20442;-76
2021/09/26 11:03:34;;;;;;;8.23;5.50;;;;;;;17.69;100.00;94057.06;5113827;28;20645;-75
2021/09/26 11:06:21;;;;;;;10.55;5.72;;;;;;;17.87;100.00;94061.34;5110191;28;20790;-76
2021/09/26 11:08:52;;;;;;;9.43;5.25;;;;;;;17.72;100.00;94059.25;5113552;28;20208;-76
2021/09/26 11:11:32;;;;;;;7.40;5.55;;;;;;;17.63;100.00;94063.28;5112952;28;20205;-76
2021/09/26 11:14:00;;;;;;;8.40;5.50;;;;;;;17.54;100.00;94063.66;5113290;28;20204;-76
2021/09/26 11:16:27;;;;;;;8.27;5.50;;;;;;;17.98;100.00;94068.41;5113613;28;20201;-76
2021/09/26 11:18:59;;;;;;;11.15;4.57;;;;;;;18.25;100.00;94062.50;5113401;28;20250;-76